Time;durP1;ratioP1;P1;durP2;ratioP2;P2;SDS_P1;SDS_P2;PMS_P1;PMS_P2;Temp;Humidity;BMP_temperature;BMP_pressure;BME280_temperature;BME280_humidity;BME280_pressure;Samples;Min_cycle;Max_cycle;Signal;HPM_P1;HPM_P2
2023/04/06 00:01:40;;;;;;;8.43;5.37;;;5.00;1.00;;;;;;5047504;28;20185;-55
2023/04/06 00:04:06;;;;;;;7.67;5.53;;;5.00;1.00;;;;;;5047112;28;20500;-54
2023/04/06 00:06:33;;;;;;;5.03;4.53;;;5.00;1.00;;;;;;5043422;28;20187;-55
2023/04/06 00:08:59;;;;;;;4.23;3.83;;;5.00;1.00;;;;;;5047014;28;20367;-55
2023/04/06 00:11:25;;;;;;;4.77;4.27;;;5.00;1.00;;;;;;5041786;28;20801;-56
2023/04/06 00:13:51;;;;;;;10.30;5.60;;;5.00;1.00;;;;;;5041800;28;20533;-53
2023/04/06 00:16:17;;;;;;;5.43;4.93;;;5.00;1.00;;;;;;5047666;28;20578;-55
2023/04/06 00:18:42;;;;;;;5.97;4.87;;;4.90;1.00;;;;;;5052961;28;20670;-54
2023/04/06 00:21:10;;;;;;;6.30;5.20;;;5.00;1.00;;;;;;5046952;28;20477;-55
2023/04/06 00:23:36;;;;;;;5.93;5.03;;;4.80;1.00;;;;;;5046260;28;20709;-54
2023/04/06 00:26:02;;;;;;;5.40;4.90;;;4.90;1.00;;;;;;5049149;28;20458;-55
2023/04/06 00:28:29;;;;;;;7.57;4.70;;;5.00;1.00;;;;;;5058341;28;20657;-55
2023/04/06 00:30:55;;;;;;;7.80;5.40;;;5.00;1.00;;;;;;5049627;28;20219;-56
2023/04/06 00:33:22;;;;;;;6.90;4.97;;;5.00;1.00;;;;;;5050822;28;20482;-54
2023/04/06 00:35:48;;;;;;;7.87;4.80;;;5.00;1.00;;;;;;5041549;28;20208;-54
2023/04/06 00:38:15;;;;;;;6.80;5.20;;;4.90;1.00;;;;;;5055520;28;20452;-54
2023/04/06 00:40:41;;;;;;;7.73;6.00;;;4.90;1.00;;;;;;5043318;28;20457;-55
2023/04/06 00:43:10;;;;;;;5.00;4.50;;;4.90;1.00;;;;;;5047358;28;20835;-56
2023/04/06 00:45:36;;;;;;;6.57;4.90;;;4.90;1.00;;;;;;5049832;28;20533;-55
2023/04/06 00:48:01;;;;;;;9.00;4.57;;;4.80;1.00;;;;;;5052469;28;20530;-55
2023/04/06 00:50:27;;;;;;;5.70;4.97;;;4.80;1.00;;;;;;5050975;28;20284;-54
2023/04/06 00:52:55;;;;;;;5.40;4.30;;;4.70;1.00;;;;;;5050754;28;20243;-54
2023/04/06 00:55:21;;;;;;;5.80;4.33;;;4.70;1.00;;;;;;5045729;28;20574;-54
2023/04/06 00:57:47;;;;;;;6.67;4.27;;;4.60;1.00;;;;;;5052368;28;20533;-55
2023/04/06 01:00:14;;;;;;;5.03;4.17;;;4.70;1.00;;;;;;5041792;28;20482;-55
2023/04/06 01:02:40;;;;;;;4.20;3.80;;;4.60;1.00;;;;;;5046198;28;20451;-55
2023/04/06 01:05:06;;;;;;;5.57;4.30;;;4.60;1.00;;;;;;5046746;28;20504;-54
2023/04/06 01:07:32;;;;;;;7.70;4.50;;;4.60;1.00;;;;;;5046061;28;20231;-53
2023/04/06 01:09:58;;;;;;;5.20;4.20;;;4.50;1.00;;;;;;5044512;28;20536;-54
2023/04/06 01:12:24;;;;;;;9.93;4.50;;;4.50;1.00;;;;;;5046624;28;20191;-55
2023/04/06 01:14:50;;;;;;;5.60;4.27;;;4.60;1.00;;;;;;5050866;28;20457;-56
2023/04/06 01:17:16;;;;;;;6.33;4.90;;;4.60;1.00;;;;;;5045920;28;20455;-54
2023/04/06 01:19:41;;;;;;;7.23;4.63;;;4.60;1.00;;;;;;5052208;28;20335;-53
2023/04/06 01:22:07;;;;;;;5.90;4.67;;;4.60;1.00;;;;;;5045256;28;20184;-55
2023/04/06 01:24:33;;;;;;;4.50;4.10;;;4.70;1.00;;;;;;5043229;28;20204;-55
2023/04/06 01:26:58;;;;;;;5.30;4.30;;;4.60;1.00;;;;;;5046478;28;20185;-55
2023/04/06 01:29:24;;;;;;;4.13;3.73;;;4.70;1.00;;;;;;5046199;28;20279;-54
2023/04/06 01:31:51;;;;;;;7.10;4.87;;;4.60;1.00;;;;;;5057868;28;20216;-56
2023/04/06 01:34:16;;;;;;;5.20;4.17;;;4.70;1.00;;;;;;5038905;28;20676;-53
2023/04/06 01:36:42;;;;;;;6.53;5.43;;;4.70;1.00;;;;;;5049348;28;20454;-55
2023/04/06 01:39:08;;;;;;;4.40;3.93;;;4.70;1.00;;;;;;5054035;28;20197;-54
2023/04/06 01:41:34;;;;;;;6.70;5.10;;;4.60;1.00;;;;;;5049674;28;20242;-53
2023/04/06 01:43:59;;;;;;;5.47;4.03;;;4.60;1.00;;;;;;5055021;28;20692;-55
2023/04/06 01:46:26;;;;;;;7.13;4.63;;;4.60;1.00;;;;;;5056958;28;20183;-53
2023/04/06 01:48:51;;;;;;;5.03;4.53;;;4.50;1.00;;;;;;5061330;28;20442;-53
2023/04/06 01:51:17;;;;;;;6.10;4.87;;;4.40;1.00;;;;;;5050072;28;20937;-54
2023/04/06 01:53:43;;;;;;;6.53;5.10;;;4.50;1.00;;;;;;5054357;28;20215;-54
2023/04/06 01:56:09;;;;;;;6.40;5.00;;;4.50;1.00;;;;;;5047955;28;20632;-54
2023/04/06 01:58:35;;;;;;;7.30;4.97;;;4.40;1.00;;;;;;5050769;28;20208;-54
2023/04/06 02:01:00;;;;;;;8.63;6.00;;;4.50;1.00;;;;;;5045559;28;20466;-54
2023/04/06 02:03:26;;;;;;;6.63;4.00;;;4.40;1.00;;;;;;5057579;28;20443;-53
2023/04/06 02:05:52;;;;;;;6.40;5.30;;;4.40;1.00;;;;;;5051525;28;20185;-55
2023/04/06 02:08:17;;;;;;;5.83;4.80;;;4.40;1.00;;;;;;5052347;28;20519;-55
2023/04/06 02:10:43;;;;;;;5.10;4.30;;;4.50;1.00;;;;;;5050600;28;20192;-54
2023/04/06 02:13:09;;;;;;;5.90;4.37;;;4.50;1.00;;;;;;5042154;28;20181;-53
2023/04/06 02:15:34;;;;;;;5.20;4.30;;;4.30;1.00;;;;;;5041187;28;20196;-54
2023/04/06 02:18:00;;;;;;;5.77;5.10;;;4.20;1.00;;;;;;5048301;28;20192;-56
2023/04/06 02:20:26;;;;;;;8.00;4.67;;;4.20;1.00;;;;;;5047558;28;20187;-55
2023/04/06 02:22:52;;;;;;;5.70;4.27;;;4.10;1.00;;;;;;5049077;28;20195;-54
2023/04/06 02:25:17;;;;;;;6.10;5.00;;;4.10;1.00;;;;;;5045929;28;20198;-54
2023/04/06 02:27:43;;;;;;;6.57;5.30;;;4.10;1.00;;;;;;5056582;28;20294;-54
2023/04/06 02:30:09;;;;;;;5.40;4.40;;;4.10;1.00;;;;;;5044587;28;20180;-53
2023/04/06 02:32:35;;;;;;;5.40;4.43;;;4.10;1.00;;;;;;5050418;28;20648;-54
2023/04/06 02:35:00;;;;;;;5.50;4.90;;;4.00;1.00;;;;;;5045747;28;20512;-55
2023/04/06 02:37:26;;;;;;;5.27;4.20;;;3.90;1.00;;;;;;5047631;28;20211;-53
2023/04/06 02:39:52;;;;;;;5.57;4.97;;;4.00;1.00;;;;;;5046069;28;20254;-54
2023/04/06 02:42:17;;;;;;;6.77;4.70;;;3.90;1.00;;;;;;5046155;28;21042;-53
2023/04/06 02:44:43;;;;;;;9.00;4.57;;;3.80;1.00;;;;;;5046135;28;20177;-54
2023/04/06 02:47:09;;;;;;;6.40;4.73;;;3.80;1.00;;;;;;5045607;28;20185;-55
2023/04/06 02:49:36;;;;;;;8.17;5.67;;;3.70;1.00;;;;;;5046301;28;20502;-54
2023/04/06 02:52:02;;;;;;;6.53;5.00;;;3.80;1.00;;;;;;5052539;28;20223;-53
2023/04/06 02:54:28;;;;;;;6.03;4.50;;;3.80;1.00;;;;;;5052760;28;20475;-55
2023/04/06 02:56:53;;;;;;;12.57;6.43;;;3.80;1.00;;;;;;5049859;28;20508;-54
2023/04/06 02:59:19;;;;;;;6.00;5.20;;;3.70;1.00;;;;;;5045345;28;20208;-54
2023/04/06 03:01:45;;;;;;;8.90;5.53;;;3.80;1.00;;;;;;5047226;28;20227;-54
2023/04/06 03:04:11;;;;;;;6.20;5.60;;;3.70;1.00;;;;;;5051478;28;20183;-53
2023/04/06 03:06:36;;;;;;;5.77;5.20;;;3.70;1.00;;;;;;5040111;28;20493;-54
2023/04/06 03:09:02;;;;;;;5.40;4.77;;;3.50;1.00;;;;;;5047019;28;20439;-56
2023/04/06 03:11:28;;;;;;;7.90;5.00;;;3.50;1.00;;;;;;5045604;28;20185;-54
2023/04/06 03:13:54;;;;;;;6.10;4.97;;;3.50;1.00;;;;;;5047449;28;20446;-55
2023/04/06 03:16:20;;;;;;;7.13;4.50;;;3.50;1.00;;;;;;5044588;28;20192;-54
2023/04/06 03:18:46;;;;;;;5.70;4.50;;;3.50;1.00;;;;;;5046156;28;20471;-55
2023/04/06 03:21:15;;;;;;;5.23;4.73;;;3.50;1.00;;;;;;5048592;28;20637;-55
2023/04/06 03:23:42;;;;;;;7.07;5.03;;;3.40;1.00;;;;;;5044611;28;20449;-54
2023/04/06 03:26:07;;;;;;;9.00;5.33;;;3.20;1.00;;;;;;5049766;28;20805;-54
2023/04/06 03:28:33;;;;;;;7.87;5.93;;;3.20;1.00;;;;;;5045290;28;20435;-53
2023/04/06 03:30:59;;;;;;;6.87;4.70;;;3.20;1.00;;;;;;5051298;28;20657;-53
2023/04/06 03:33:28;;;;;;;6.70;5.13;;;3.20;1.00;;;;;;5042534;28;20193;-53
2023/04/06 03:35:54;;;;;;;5.83;5.23;;;3.20;1.00;;;;;;5048287;28;20449;-54
2023/04/06 03:38:20;;;;;;;5.63;4.97;;;3.20;1.00;;;;;;5040609;28;20489;-54
2023/04/06 03:40:46;;;;;;;7.00;5.13;;;3.20;1.00;;;;;;5051111;28;20543;-54
2023/04/06 03:43:11;;;;;;;7.53;5.40;;;3.20;1.00;;;;;;5048827;28;20410;-54
2023/04/06 03:45:37;;;;;;;5.80;4.70;;;3.20;1.00;;;;;;5041706;28;21753;-54
2023/04/06 03:48:03;;;;;;;8.10;6.20;;;3.20;1.00;;;;;;5045969;28;20446;-55
2023/04/06 03:50:29;;;;;;;5.90;5.10;;;3.10;1.00;;;;;;5042991;28;20451;-53
2023/04/06 03:52:55;;;;;;;6.03;5.43;;;3.20;1.00;;;;;;5051808;28;20457;-54
2023/04/06 03:55:21;;;;;;;6.10;5.07;;;3.20;1.00;;;;;;5050108;28;20238;-54
2023/04/06 03:57:46;;;;;;;7.20;5.23;;;3.20;1.00;;;;;;5051503;28;20581;-55
2023/04/06 04:00:13;;;;;;;6.47;5.67;;;3.10;1.00;;;;;;5048292;28;20247;-55
2023/04/06 04:02:39;;;;;;;11.10;6.10;;;3.10;1.00;;;;;;5056338;28;20254;-54
2023/04/06 04:05:05;;;;;;;7.40;6.10;;;3.10;1.00;;;;;;5050209;28;20793;-53
2023/04/06 04:07:30;;;;;;;9.00;6.87;;;3.10;1.00;;;;;;5048524;28;20437;-55
2023/04/06 04:09:56;;;;;;;8.60;5.10;;;3.10;1.00;;;;;;5040848;28;20527;-53
2023/04/06 04:12:21;;;;;;;8.23;5.73;;;3.00;1.00;;;;;;5049649;28;20754;-55
2023/04/06 04:14:47;;;;;;;7.60;5.27;;;3.00;1.00;;;;;;5047704;28;20195;-55
2023/04/06 04:17:13;;;;;;;6.73;4.90;;;3.00;1.00;;;;;;5045677;28;20216;-54
2023/04/06 04:19:38;;;;;;;9.03;5.73;;;2.90;1.00;;;;;;5051882;28;20661;-53
2023/04/06 04:22:05;;;;;;;8.00;5.93;;;2.90;1.00;;;;;;5051287;28;20197;-54
2023/04/06 04:24:31;;;;;;;8.27;5.90;;;2.90;1.00;;;;;;5043915;28;20212;-54
2023/04/06 04:26:57;;;;;;;7.60;5.70;;;3.00;1.00;;;;;;5050507;28;21029;-54
2023/04/06 04:29:22;;;;;;;8.13;5.90;;;3.00;1.00;;;;;;5042559;28;20747;-54
2023/04/06 04:31:49;;;;;;;6.73;5.10;;;2.90;1.00;;;;;;5051179;28;20701;-53
2023/04/06 04:34:15;;;;;;;7.00;5.27;;;2.90;1.00;;;;;;5056272;28;20188;-55
2023/04/06 04:36:41;;;;;;;6.00;4.40;;;2.90;1.00;;;;;;5050307;28;20453;-55
2023/04/06 04:39:07;;;;;;;6.90;5.50;;;2.90;1.00;;;;;;5047177;28;20462;-54
2023/04/06 04:41:33;;;;;;;8.20;5.77;;;3.00;1.00;;;;;;5053573;28;20446;-54
2023/04/06 04:43:59;;;;;;;8.60;5.10;;;2.90;1.00;;;;;;5046080;28;20863;-54
2023/04/06 04:46:24;;;;;;;7.10;5.00;;;2.90;1.00;;;;;;5048408;28;20188;-54
2023/04/06 04:48:50;;;;;;;8.33;4.70;;;2.90;1.00;;;;;;5051858;28;20180;-55
2023/04/06 04:51:16;;;;;;;8.20;5.30;;;2.90;1.00;;;;;;5048873;28;20590;-56
2023/04/06 04:53:41;;;;;;;8.80;5.97;;;2.90;1.00;;;;;;5049827;28;20933;-54
2023/04/06 04:56:07;;;;;;;9.90;6.00;;;2.80;1.00;;;;;;5049049;28;20512;-54
2023/04/06 04:58:32;;;;;;;7.70;5.60;;;2.80;1.00;;;;;;5048230;28;20645;-53
2023/04/06 05:00:58;;;;;;;7.30;5.13;;;2.90;1.00;;;;;;5045604;28;20550;-55
2023/04/06 05:03:26;;;;;;;9.67;6.50;;;2.90;1.00;;;;;;5042586;28;20275;-55
2023/04/06 05:05:51;;;;;;;15.47;5.77;;;2.90;1.00;;;;;;5044612;28;20535;-55
2023/04/06 05:08:17;;;;;;;9.20;6.20;;;2.90;1.00;;;;;;5048724;28;20455;-55
2023/04/06 05:10:44;;;;;;;7.47;6.60;;;3.00;1.00;;;;;;5047173;28;20211;-54
2023/04/06 05:13:10;;;;;;;8.67;6.10;;;3.20;1.00;;;;;;5049116;28;20246;-55
2023/04/06 05:15:37;;;;;;;8.67;6.37;;;3.20;1.00;;;;;;5042635;28;20444;-58
2023/04/06 05:18:04;;;;;;;8.60;6.03;;;3.30;1.00;;;;;;5044393;28;20461;-55
2023/04/06 05:20:30;;;;;;;9.67;6.23;;;3.30;1.00;;;;;;5053331;28;20823;-55
2023/04/06 05:22:56;;;;;;;7.07;6.17;;;3.30;1.00;;;;;;5043994;28;20501;-54
2023/04/06 05:25:22;;;;;;;6.40;5.70;;;3.30;1.00;;;;;;5044200;28;20443;-55
2023/04/06 05:27:47;;;;;;;8.80;5.80;;;3.40;1.00;;;;;;5044454;28;20247;-54
2023/04/06 05:30:13;;;;;;;8.23;6.47;;;3.50;1.00;;;;;;5045204;28;20237;-55
2023/04/06 05:32:39;;;;;;;8.90;6.37;;;3.50;1.00;;;;;;5043697;28;20605;-55
2023/04/06 05:35:05;;;;;;;10.00;6.70;;;3.50;1.00;;;;;;5051779;28;20478;-55
2023/04/06 05:37:31;;;;;;;7.33;6.03;;;3.50;1.00;;;;;;5043953;28;20527;-55
2023/04/06 05:39:56;;;;;;;9.30;6.23;;;3.70;1.00;;;;;;5046809;28;20481;-54
2023/04/06 05:42:22;;;;;;;6.70;6.10;;;3.70;1.00;;;;;;5047546;28;20186;-54
2023/04/06 05:44:48;;;;;;;10.20;6.50;;;3.70;1.00;;;;;;5051054;28;20181;-55
2023/04/06 05:47:14;;;;;;;10.70;6.73;;;3.80;1.00;;;;;;5047294;28;20471;-55
2023/04/06 05:49:42;;;;;;;10.70;5.23;;;3.80;1.00;;;;;;5045785;28;20489;-55
2023/04/06 05:52:08;;;;;;;6.73;5.93;;;3.80;1.00;;;;;;5047487;28;20187;-54
2023/04/06 05:54:35;;;;;;;8.73;5.87;;;3.90;1.00;;;;;;5047973;28;20540;-55
2023/04/06 05:57:02;;;;;;;9.77;6.27;;;3.90;1.00;;;;;;5050263;28;20473;-55
2023/04/06 05:59:30;;;;;;;8.67;5.97;;;4.00;1.00;;;;;;5050589;28;20455;-54
2023/04/06 06:01:55;;;;;;;9.57;7.67;;;4.20;1.00;;;;;;5050880;28;20467;-54
2023/04/06 06:04:21;;;;;;;8.53;5.93;;;4.30;1.00;;;;;;5046673;28;20502;-56
2023/04/06 06:06:46;;;;;;;10.50;7.03;;;4.40;1.00;;;;;;5050388;28;20735;-54
2023/04/06 06:09:12;;;;;;;8.40;6.20;;;4.50;1.00;;;;;;5050721;28;20189;-56
2023/04/06 06:11:38;;;;;;;7.33;6.47;;;4.50;1.00;;;;;;5048096;28;20199;-56
2023/04/06 06:14:04;;;;;;;7.87;6.27;;;4.60;1.00;;;;;;5049956;28;20200;-57
2023/04/06 06:16:29;;;;;;;11.03;6.60;;;4.70;1.00;;;;;;5050535;28;20555;-55
2023/04/06 06:18:55;;;;;;;10.13;6.30;;;4.80;1.00;;;;;;5058379;28;20785;-55
2023/04/06 06:21:21;;;;;;;11.13;7.27;;;4.80;1.00;;;;;;5050173;28;20177;-56
2023/04/06 06:23:49;;;;;;;12.40;7.60;;;5.00;1.00;;;;;;5050416;28;20442;-55
2023/04/06 06:26:14;;;;;;;12.60;6.70;;;5.10;1.00;;;;;;5049207;28;20272;-55
2023/04/06 06:28:40;;;;;;;8.23;6.80;;;5.20;1.00;;;;;;5050374;28;20523;-55
2023/04/06 06:31:06;;;;;;;11.23;7.20;;;5.60;1.00;;;;;;5050075;28;20191;-55
2023/04/06 06:33:32;;;;;;;9.37;7.17;;;5.60;1.00;;;;;;5050023;28;20184;-55
2023/04/06 06:35:58;;;;;;;7.87;6.93;;;5.50;1.00;;;;;;5047092;28;20458;-56
2023/04/06 06:38:24;;;;;;;8.87;6.80;;;5.60;1.00;;;;;;5049869;28;20184;-54
2023/04/06 06:40:49;;;;;;;7.73;6.90;;;5.60;1.00;;;;;;5049230;28;21148;-55
2023/04/06 06:43:15;;;;;;;8.23;7.13;;;5.70;1.00;;;;;;5050123;28;20214;-55
2023/04/06 06:45:42;;;;;;;11.23;7.07;;;5.80;1.00;;;;;;5049494;28;20195;-56
2023/04/06 06:48:08;;;;;;;8.17;6.60;;;6.00;1.00;;;;;;5049834;28;20177;-55
2023/04/06 06:50:33;;;;;;;8.33;6.70;;;6.20;1.00;;;;;;5048227;28;20458;-54
2023/04/06 06:52:59;;;;;;;10.20;7.60;;;6.40;1.00;;;;;;5048865;28;20219;-55
2023/04/06 06:55:26;;;;;;;7.67;6.53;;;6.50;99.90;;;;;;5046364;28;20699;-55
2023/04/06 06:57:52;;;;;;;10.67;6.60;;;6.50;99.90;;;;;;5048333;28;20200;-55
2023/04/06 07:00:20;;;;;;;8.43;6.77;;;6.60;99.90;;;;;;5049657;28;20658;-55
2023/04/06 07:02:48;;;;;;;8.37;6.60;;;6.60;99.90;;;;;;5049780;28;20512;-55
2023/04/06 07:05:15;;;;;;;11.03;8.00;;;6.60;99.90;;;;;;5050238;28;20435;-55
2023/04/06 07:07:41;;;;;;;9.40;7.20;;;6.70;99.90;;;;;;5066419;28;20188;-55
2023/04/06 07:10:08;;;;;;;7.97;6.80;;;6.80;99.90;;;;;;5046540;28;20443;-56
2023/04/06 07:12:33;;;;;;;10.67;6.73;;;7.00;99.90;;;;;;5049071;28;20513;-54
2023/04/06 07:14:59;;;;;;;7.77;6.53;;;7.20;99.90;;;;;;5049294;28;20431;-56
2023/04/06 07:17:25;;;;;;;9.60;7.10;;;7.30;99.90;;;;;;5049293;28;20192;-56
2023/04/06 07:19:50;;;;;;;9.17;6.80;;;7.40;99.90;;;;;;5047665;28;20258;-56
2023/04/06 07:22:16;;;;;;;7.30;6.07;;;7.50;99.90;;;;;;5049263;28;20176;-56
2023/04/06 07:24:42;;;;;;;8.03;6.90;;;7.60;99.90;;;;;;5056531;28;20215;-56
2023/04/06 07:27:08;;;;;;;7.60;6.20;;;7.70;99.90;;;;;;5048964;28;20215;-55
2023/04/06 07:29:33;;;;;;;8.63;6.57;;;7.80;99.90;;;;;;5049324;28;20242;-56
2023/04/06 07:31:59;;;;;;;7.30;6.57;;;7.90;99.90;;;;;;5049154;28;20196;-54
2023/04/06 07:34:25;;;;;;;6.87;5.80;;;8.00;99.90;;;;;;5048660;28;20188;-56
2023/04/06 07:36:52;;;;;;;6.23;5.63;;;8.10;99.90;;;;;;5049221;28;20180;-55
2023/04/06 07:39:18;;;;;;;7.60;6.83;;;8.40;99.90;;;;;;5048334;28;20343;-55
2023/04/06 07:41:43;;;;;;;8.10;7.17;;;8.70;99.90;;;;;;5054863;28;21134;-55
2023/04/06 07:44:09;;;;;;;7.20;6.17;;;8.90;99.90;;;;;;5052993;28;20184;-55
2023/04/06 07:46:36;;;;;;;9.73;6.53;;;9.10;99.90;;;;;;5048907;28;20181;-55
2023/04/06 07:49:02;;;;;;;7.57;6.33;;;9.20;99.90;;;;;;5046547;28;20749;-56
2023/04/06 07:51:27;;;;;;;8.73;6.60;;;9.40;99.90;;;;;;5048550;28;20466;-57
2023/04/06 07:53:54;;;;;;;7.73;6.20;;;9.50;99.90;;;;;;5050083;28;21046;-56
2023/04/06 07:56:20;;;;;;;6.40;5.77;;;9.60;99.90;;;;;;5048990;28;20220;-56
2023/04/06 07:58:46;;;;;;;8.13;6.20;;;9.50;99.90;;;;;;5049953;28;20549;-57
2023/04/06 08:01:12;;;;;;;7.10;6.23;;;9.60;99.90;;;;;;5049252;28;21078;-55
2023/04/06 08:03:38;;;;;;;7.87;6.23;;;9.70;99.90;;;;;;5049028;28;20436;-55
2023/04/06 08:06:04;;;;;;;8.20;6.80;;;9.90;99.90;;;;;;5048846;28;20188;-56
2023/04/06 08:08:30;;;;;;;7.53;6.03;;;10.20;99.90;;;;;;5049060;28;20585;-56
2023/04/06 08:10:56;;;;;;;9.00;6.90;;;10.20;99.90;;;;;;5048643;28;20781;-55
2023/04/06 08:13:22;;;;;;;10.77;6.13;;;10.20;99.90;;;;;;5048344;28;20430;-55
2023/04/06 08:15:47;;;;;;;7.53;6.10;;;10.20;99.90;;;;;;5047674;28;20435;-56
2023/04/06 08:18:13;;;;;;;15.43;7.33;;;10.30;99.90;;;;;;5048273;28;20267;-57
2023/04/06 08:20:39;;;;;;;7.17;6.47;;;10.40;99.90;;;;;;5048494;28;20231;-56
2023/04/06 08:23:06;;;;;;;8.90;6.23;;;10.60;99.90;;;;;;5048671;28;20194;-55
2023/04/06 08:25:34;;;;;;;8.87;5.93;;;10.70;99.90;;;;;;5048227;28;20443;-55
2023/04/06 08:27:59;;;;;;;8.87;6.30;;;10.80;99.90;;;;;;5048579;28;20445;-55
2023/04/06 08:30:25;;;;;;;7.57;6.77;;;10.90;99.90;;;;;;5048829;28;20871;-56
2023/04/06 08:32:51;;;;;;;8.43;6.50;;;11.00;99.90;;;;;;5068619;28;20202;-56
2023/04/06 08:35:16;;;;;;;6.40;5.90;;;11.10;99.90;;;;;;5061612;28;20196;-55
2023/04/06 08:37:42;;;;;;;6.87;6.27;;;11.00;99.90;;;;;;5052192;28;20291;-56
2023/04/06 08:40:08;;;;;;;9.57;7.27;;;11.10;99.90;;;;;;5052592;28;20659;-55
2023/04/06 08:42:43;;;;;;;8.20;7.00;;;11.40;99.90;;;;;;5052256;28;20199;-56
2023/04/06 08:45:10;;;;;;;5.63;5.13;;;11.50;99.90;;;;;;5051425;28;20438;-55
2023/04/06 08:47:39;;;;;;;7.17;6.10;;;11.80;99.90;;;;;;5051999;28;20437;-56
2023/04/06 08:50:05;;;;;;;6.03;5.43;;;11.70;99.90;;;;;;5051777;28;20439;-55
2023/04/06 08:52:33;;;;;;;7.20;5.57;;;11.90;99.90;;;;;;5054659;28;20435;-56
2023/04/06 08:54:59;;;;;;;6.93;5.20;;;11.80;99.90;;;;;;5054465;28;20489;-56
2023/04/06 08:57:26;;;;;;;8.03;5.20;;;11.90;99.90;;;;;;5048739;28;20503;-55
2023/04/06 08:59:52;;;;;;;6.00;4.90;;;12.00;99.90;;;;;;5050448;28;20212;-55
2023/04/06 09:02:19;;;;;;;7.20;4.40;;;12.30;99.90;;;;;;5050039;28;20493;-56
2023/04/06 09:04:50;;;;;;;5.23;4.43;;;12.50;99.90;;;;;;5051145;28;20516;-55
2023/04/06 09:07:16;;;;;;;5.37;4.90;;;12.60;99.90;;;;;;5048463;28;20559;-56
2023/04/06 09:09:47;;;;;;;5.20;4.30;;;12.70;99.90;;;;;;5046563;28;20446;-57
2023/04/06 09:12:26;;;;;;;5.90;5.30;;;12.70;99.90;;;;;;5047755;28;20455;-56
2023/04/06 09:14:52;;;;;;;8.47;5.40;;;12.80;99.90;;;;;;5050745;28;20449;-55
2023/04/06 09:17:23;;;;;;;5.53;5.03;;;12.80;99.90;;;;;;5051732;28;20442;-55
2023/04/06 09:19:49;;;;;;;7.30;6.37;;;13.10;99.90;;;;;;5055001;28;20208;-56
2023/04/06 09:22:15;;;;;;;5.70;4.97;;;13.40;99.90;;;;;;5048851;28;20948;-56
2023/04/06 09:24:52;;;;;;;4.93;4.53;;;13.30;99.90;;;;;;5048599;28;20476;-56
2023/04/06 09:27:29;;;;;;;5.20;4.47;;;13.20;99.90;;;;;;5040710;28;20204;-55
2023/04/06 09:30:13;;;;;;;6.23;5.63;;;13.30;99.90;;;;;;5045597;28;20439;-55
2023/04/06 09:32:49;;;;;;;5.50;5.00;;;13.60;99.90;;;;;;5046149;28;20497;-55
2023/04/06 09:35:15;;;;;;;6.27;5.60;;;13.40;99.90;;;;;;5048905;28;21090;-57
2023/04/06 09:37:42;;;;;;;5.43;4.43;;;13.00;99.90;;;;;;5044635;28;20492;-57
2023/04/06 09:40:08;;;;;;;5.43;4.60;;;12.60;99.90;;;;;;5056331;28;20203;-57
2023/04/06 09:42:37;;;;;;;7.60;5.53;;;12.50;99.90;;;;;;5049384;28;20442;-56
2023/04/06 09:45:04;;;;;;;5.90;5.30;;;12.60;99.90;;;;;;5049701;28;20572;-56
2023/04/06 09:47:30;;;;;;;6.10;4.90;;;12.90;99.90;;;;;;5041954;28;20804;-56
2023/04/06 09:50:00;;;;;;;5.20;4.70;;;13.50;99.90;;;;;;5046528;28;20446;-55
2023/04/06 09:52:47;;;;;;;5.40;4.90;;;13.70;99.90;;;;;;5046485;28;20882;-54
2023/04/06 09:55:35;;;;;;;4.50;4.10;;;13.70;99.90;;;;;;5049087;28;20535;-55
2023/04/06 09:58:10;;;;;;;5.93;4.07;;;13.50;99.90;;;;;;5048717;28;20447;-56
2023/04/06 10:01:08;;;;;;;4.83;4.37;;;13.50;99.90;;;;;;5046194;28;20561;-55
2023/04/06 10:03:37;;;;;;;5.23;4.73;;;13.60;99.90;;;;;;5046873;28;20443;-57
2023/04/06 10:06:05;;;;;;;5.17;4.63;;;13.90;99.90;;;;;;5047059;28;20444;-56
2023/04/06 10:08:34;;;;;;;6.60;4.60;;;13.90;99.90;;;;;;5046996;28;20443;-55
2023/04/06 10:11:01;;;;;;;5.07;4.60;;;13.40;99.90;;;;;;5048104;28;20450;-56
2023/04/06 10:13:27;;;;;;;4.63;4.10;;;12.70;99.90;;;;;;5054546;28;20508;-56
2023/04/06 10:15:54;;;;;;;7.60;4.13;;;12.40;99.90;;;;;;5042250;28;20435;-57
2023/04/06 10:18:20;;;;;;;4.60;4.20;;;12.50;99.90;;;;;;5048971;28;20420;-56
2023/04/06 10:20:57;;;;;;;4.23;3.83;;;13.10;99.90;;;;;;5039292;28;20537;-57
2023/04/06 10:23:44;;;;;;;4.47;3.90;;;13.70;99.90;;;;;;5046894;28;20481;-55
2023/04/06 10:26:16;;;;;;;6.00;5.50;;;14.00;99.90;;;;;;5046011;28;20470;-56
2023/04/06 10:28:42;;;;;;;3.90;3.50;;;13.70;99.90;;;;;;5046923;28;20447;-56
2023/04/06 10:31:08;;;;;;;3.80;3.50;;;13.60;99.90;;;;;;5048279;28;20462;-56
2023/04/06 10:33:34;;;;;;;4.20;3.90;;;13.60;99.90;;;;;;5049843;28;20426;-54
2023/04/06 10:36:22;;;;;;;3.77;3.47;;;13.70;99.90;;;;;;5043022;28;20181;-56
2023/04/06 10:38:54;;;;;;;5.77;4.07;;;13.70;99.90;;;;;;5046962;28;20565;-55
2023/04/06 10:41:20;;;;;;;4.10;3.70;;;14.40;99.90;;;;;;5045838;28;20469;-56
2023/04/06 10:43:56;;;;;;;3.90;3.60;;;15.00;99.90;;;;;;5044067;28;20465;-57
2023/04/06 10:46:26;;;;;;;3.70;3.37;;;15.80;99.90;;;;;;5049031;28;20529;-56
2023/04/06 10:48:51;;;;;;;8.83;3.70;;;15.60;99.90;;;;;;5044728;28;20662;-57
2023/04/06 10:51:18;;;;;;;3.20;2.90;;;15.60;99.90;;;;;;5039809;28;20447;-56
2023/04/06 10:53:48;;;;;;;4.07;3.77;;;15.90;99.90;;;;;;5043292;28;20196;-56
2023/04/06 10:56:21;;;;;;;4.17;3.83;;;16.20;99.90;;;;;;5051161;28;20512;-57
2023/04/06 10:58:47;;;;;;;4.70;3.93;;;16.50;99.90;;;;;;5047793;28;20990;-55
2023/04/06 11:01:16;;;;;;;7.00;3.90;;;16.60;99.90;;;;;;5048262;28;20466;-56
2023/04/06 11:03:51;;;;;;;3.33;3.03;;;15.80;99.90;;;;;;5044698;28;20458;-57
2023/04/06 11:06:29;;;;;;;4.50;4.10;;;14.80;99.90;;;;;;5044361;28;20434;-56
2023/04/06 11:08:55;;;;;;;4.50;4.10;;;14.00;99.90;;;;;;5042494;28;20642;-55
2023/04/06 11:11:23;;;;;;;3.80;3.50;;;13.80;99.90;;;;;;5040743;28;20795;-56
2023/04/06 11:13:51;;;;;;;4.77;4.37;;;13.50;99.90;;;;;;5043343;28;20557;-55
2023/04/06 11:16:25;;;;;;;6.10;4.27;;;13.20;99.90;;;;;;5043875;28;20463;-54
2023/04/06 11:19:01;;;;;;;4.90;4.40;;;13.20;99.90;;;;;;5044749;28;20539;-56
2023/04/06 11:21:47;;;;;;;4.73;4.33;;;13.50;99.90;;;;;;5048996;28;20435;-55
2023/04/06 11:24:14;;;;;;;6.00;4.07;;;14.20;99.90;;;;;;5047331;28;20430;-56
2023/04/06 11:26:40;;;;;;;4.20;3.80;;;14.60;99.90;;;;;;5049103;28;20463;-56
2023/04/06 11:29:06;;;;;;;5.63;4.73;;;14.60;99.90;;;;;;5049070;28;20855;-56
2023/04/06 11:31:41;;;;;;;5.13;4.73;;;14.80;99.90;;;;;;5048131;28;20458;-57
2023/04/06 11:34:16;;;;;;;3.90;3.50;;;14.80;99.90;;;;;;5049803;28;20469;-57
2023/04/06 11:36:43;;;;;;;4.47;4.00;;;14.60;99.90;;;;;;5048857;28;20740;-57
2023/04/06 11:39:10;;;;;;;5.23;4.73;;;14.30;99.90;;;;;;5048872;28;20812;-55
2023/04/06 11:41:36;;;;;;;6.27;4.27;;;14.20;99.90;;;;;;5049136;28;20435;-56
2023/04/06 11:44:05;;;;;;;4.60;4.20;;;14.10;99.90;;;;;;5053125;28;20960;-56
2023/04/06 11:46:31;;;;;;;4.83;3.83;;;14.10;99.90;;;;;;5047921;28;20470;-55
2023/04/06 11:49:02;;;;;;;6.60;3.77;;;14.30;99.90;;;;;;5048843;28;20944;-58
2023/04/06 11:51:28;;;;;;;5.07;4.60;;;14.10;99.90;;;;;;5048949;28;20542;-56
2023/04/06 11:53:54;;;;;;;4.73;4.27;;;14.00;99.90;;;;;;5048703;28;20541;-56
2023/04/06 11:56:30;;;;;;;5.33;4.83;;;14.00;99.90;;;;;;5048759;28;20961;-56
2023/04/06 11:58:57;;;;;;;5.23;4.70;;;14.30;99.90;;;;;;5049011;28;20470;-56
2023/04/06 12:01:24;;;;;;;4.87;4.37;;;14.60;99.90;;;;;;5045522;28;20808;-57
2023/04/06 12:03:51;;;;;;;7.27;4.60;;;14.70;99.90;;;;;;5047817;28;20447;-55
2023/04/06 12:06:17;;;;;;;5.40;4.70;;;14.30;99.90;;;;;;5048367;28;20443;-57
2023/04/06 12:08:43;;;;;;;5.13;4.70;;;14.50;99.90;;;;;;5049131;28;20797;-55
2023/04/06 12:11:08;;;;;;;5.30;4.90;;;14.70;99.90;;;;;;5050548;28;20442;-56
2023/04/06 12:13:34;;;;;;;6.90;4.60;;;15.00;99.90;;;;;;5052915;28;20606;-56
2023/04/06 12:16:00;;;;;;;6.17;4.70;;;15.40;99.90;;;;;;5052687;28;20184;-55
2023/04/06 12:18:25;;;;;;;4.93;4.53;;;15.80;99.90;;;;;;5052553;28;20192;-56
2023/04/06 12:20:51;;;;;;;6.53;5.00;;;16.10;99.90;;;;;;5051888;28;20184;-55
2023/04/06 12:23:19;;;;;;;6.23;5.00;;;16.30;99.90;;;;;;5052710;28;20188;-56
2023/04/06 12:25:45;;;;;;;6.10;4.83;;;16.10;99.90;;;;;;5052580;28;20497;-57
2023/04/06 12:28:11;;;;;;;5.20;4.10;;;16.00;99.90;;;;;;5052510;28;22529;-57
2023/04/06 12:30:37;;;;;;;4.43;4.10;;;16.20;99.90;;;;;;5052523;28;20500;-56
2023/04/06 12:33:02;;;;;;;5.57;5.07;;;16.10;99.90;;;;;;5052115;28;20427;-58
2023/04/06 12:35:28;;;;;;;5.50;5.00;;;16.20;99.90;;;;;;5051330;28;20485;-56
2023/04/06 12:37:54;;;;;;;9.33;5.93;;;16.20;99.90;;;;;;5051506;28;20617;-57
2023/04/06 12:40:20;;;;;;;6.07;5.40;;;16.00;99.90;;;;;;5051698;28;20200;-57
2023/04/06 12:42:46;;;;;;;5.60;5.10;;;15.60;99.90;;;;;;5052282;28;20666;-58
2023/04/06 12:45:12;;;;;;;5.93;4.90;;;15.50;99.90;;;;;;5051955;28;20439;-56
2023/04/06 12:47:38;;;;;;;4.87;4.50;;;15.50;99.90;;;;;;5048935;28;20446;-56
2023/04/06 12:50:05;;;;;;;6.10;5.30;;;15.40;99.90;;;;;;5052162;28;20183;-56
2023/04/06 12:52:31;;;;;;;5.90;5.40;;;15.00;99.90;;;;;;5052142;28;20185;-55
2023/04/06 12:54:59;;;;;;;5.50;4.93;;;14.70;99.90;;;;;;5051941;28;20458;-56
2023/04/06 12:57:26;;;;;;;5.40;4.93;;;14.70;99.90;;;;;;5051720;28;20434;-55